FHV1153 KPIT-KBOS
Flight info
| Callsign | FHV1153 |
|---|---|
| Flight time | 1h 16m |
| Altitude | 33000 |
| Route | TYROO PSB J49 HNK PONCT JFUND2 |
| Aircraft | B738/M-SDE2E3FGHIRWXY/LB1 |
Departure
| Time | 2026-05-06 02:18 |
|---|---|
| Airport | Pittsburgh International Airport (KPIT) |
Arrival
| Time | 2026-05-06 03:34 |
|---|---|
| Airport | Boston Logan International Airport (KBOS) |
| Time | Latitude | Longitude | Altitude | Speed | Heading |
|---|---|---|---|---|---|
| 2026-05-06 01:54 | 40.49257 | -80.24169 | 1149 ft | 0 kts | 355° |
| 2026-05-06 02:06 | 40.49259 | -80.24171 | 1149 ft | 1 kts | 342° |
| 2026-05-06 02:06 | 40.49261 | -80.24191 | 1149 ft | 4 kts | 255° |
| 2026-05-06 02:07 | 40.49252 | -80.24212 | 1148 ft | 4 kts | 236° |
| 2026-05-06 02:07 | 40.49222 | -80.24278 | 1148 ft | 12 kts | 246° |
| 2026-05-06 02:07 | 40.49203 | -80.24344 | 1148 ft | 0 kts | 246° |
| 2026-05-06 02:07 | 40.49202 | -80.24349 | 1148 ft | 0 kts | 245° |
| 2026-05-06 02:08 | 40.49191 | -80.24363 | 1147 ft | 8 kts | 215° |
| 2026-05-06 02:08 | 40.49127 | -80.24345 | 1146 ft | 12 kts | 154° |
| 2026-05-06 02:09 | 40.49075 | -80.24213 | 1146 ft | 23 kts | 92° |
| 2026-05-06 02:09 | 40.49070 | -80.23994 | 1148 ft | 29 kts | 92° |
| 2026-05-06 02:09 | 40.49063 | -80.23772 | 1145 ft | 24 kts | 92° |
| 2026-05-06 02:09 | 40.49059 | -80.23555 | 1150 ft | 21 kts | 88° |
| 2026-05-06 02:10 | 40.49051 | -80.23321 | 1145 ft | 30 kts | 94° |
| 2026-05-06 02:10 | 40.49043 | -80.23072 | 1145 ft | 22 kts | 91° |
| 2026-05-06 02:10 | 40.49040 | -80.22861 | 1143 ft | 22 kts | 91° |
| 2026-05-06 02:10 | 40.49035 | -80.22656 | 1143 ft | 20 kts | 92° |
| 2026-05-06 02:11 | 40.49029 | -80.22477 | 1143 ft | 19 kts | 91° |
| 2026-05-06 02:11 | 40.49030 | -80.22287 | 1143 ft | 23 kts | 86° |
| 2026-05-06 02:11 | 40.49032 | -80.22096 | 1143 ft | 22 kts | 91° |
| 2026-05-06 02:11 | 40.49028 | -80.21902 | 1143 ft | 20 kts | 93° |
| 2026-05-06 02:12 | 40.49025 | -80.21713 | 1144 ft | 22 kts | 95° |
| 2026-05-06 02:12 | 40.48997 | -80.21509 | 1142 ft | 23 kts | 104° |
| 2026-05-06 02:12 | 40.48984 | -80.21314 | 1144 ft | 21 kts | 91° |
| 2026-05-06 02:12 | 40.48981 | -80.21174 | 1145 ft | 12 kts | 92° |
| 2026-05-06 02:13 | 40.48980 | -80.21149 | 1143 ft | 0 kts | 92° |
| 2026-05-06 02:14 | 40.48980 | -80.21144 | 1143 ft | 3 kts | 92° |
| 2026-05-06 02:14 | 40.48978 | -80.21093 | 1143 ft | 9 kts | 92° |
| 2026-05-06 02:15 | 40.48973 | -80.20991 | 1141 ft | 11 kts | 102° |
| 2026-05-06 02:15 | 40.48955 | -80.20955 | 1142 ft | 0 kts | 139° |
| 2026-05-06 02:16 | 40.48947 | -80.20947 | 1142 ft | 4 kts | 150° |
| 2026-05-06 02:16 | 40.48924 | -80.20942 | 1145 ft | 6 kts | 176° |
| 2026-05-06 02:17 | 40.48891 | -80.21009 | 1141 ft | 0 kts | 270° |
| 2026-05-06 02:17 | 40.48891 | -80.21011 | 1141 ft | 1 kts | 270° |
| 2026-05-06 02:17 | 40.48893 | -80.21147 | 1141 ft | 44 kts | 271° |
| 2026-05-06 02:17 | 40.48912 | -80.21931 | 1142 ft | 125 kts | 272° |
| 2026-05-06 02:18 | 40.48961 | -80.23342 | 1363 ft | 170 kts | 272° |
| 2026-05-06 02:18 | 40.49031 | -80.24870 | 2396 ft | 169 kts | 269° |
| 2026-05-06 02:18 | 40.49109 | -80.26485 | 3129 ft | 183 kts | 273° |
| 2026-05-06 02:18 | 40.49246 | -80.27621 | 3240 ft | 198 kts | 272° |
| 2026-05-06 02:19 | 40.49548 | -80.30169 | 3732 ft | 220 kts | 275° |
| 2026-05-06 02:19 | 40.49717 | -80.31492 | 4126 ft | 223 kts | 273° |
| 2026-05-06 02:19 | 40.49938 | -80.33576 | 4481 ft | 241 kts | 272° |
| 2026-05-06 02:19 | 40.50152 | -80.35800 | 5138 ft | 248 kts | 271° |
| 2026-05-06 02:20 | 40.50590 | -80.40349 | 6864 ft | 250 kts | 268° |
| 2026-05-06 02:20 | 40.50711 | -80.42652 | 7669 ft | 254 kts | 267° |
| 2026-05-06 02:20 | 40.50793 | -80.44978 | 8530 ft | 256 kts | 266° |
| 2026-05-06 02:21 | 40.50858 | -80.47318 | 9404 ft | 258 kts | 266° |
| 2026-05-06 02:21 | 40.50914 | -80.49684 | 9826 ft | 259 kts | 266° |
| 2026-05-06 02:21 | 40.51285 | -80.52034 | 9935 ft | 270 kts | 289° |
| 2026-05-06 02:21 | 40.52499 | -80.53959 | 10182 ft | 283 kts | 317° |
| 2026-05-06 02:22 | 40.54383 | -80.55029 | 10484 ft | 317 kts | 344° |
| 2026-05-06 02:22 | 40.56704 | -80.54991 | 10717 ft | 352 kts | 7° |
| 2026-05-06 02:22 | 40.59065 | -80.53749 | 10978 ft | 379 kts | 32° |
| 2026-05-06 02:22 | 40.60992 | -80.51325 | 11563 ft | 391 kts | 55° |
| 2026-05-06 02:23 | 40.62177 | -80.48114 | 12283 ft | 392 kts | 75° |
| 2026-05-06 02:23 | 40.62724 | -80.44598 | 13045 ft | 393 kts | 85° |
| 2026-05-06 02:23 | 40.62970 | -80.40994 | 13690 ft | 399 kts | 89° |
| 2026-05-06 02:23 | 40.63110 | -80.37322 | 14279 ft | 404 kts | 90° |
| 2026-05-06 02:24 | 40.63234 | -80.33614 | 14910 ft | 408 kts | 90° |
| 2026-05-06 02:24 | 40.63379 | -80.29857 | 15543 ft | 412 kts | 89° |
| 2026-05-06 02:24 | 40.63551 | -80.26080 | 16169 ft | 416 kts | 88° |
| 2026-05-06 02:24 | 40.63749 | -80.22257 | 16787 ft | 420 kts | 88° |
| 2026-05-06 02:25 | 40.63964 | -80.18407 | 17414 ft | 424 kts | 87° |
| 2026-05-06 02:25 | 40.64189 | -80.14515 | 18055 ft | 428 kts | 87° |
| 2026-05-06 02:25 | 40.64458 | -80.09948 | 18689 ft | 432 kts | 87° |
| 2026-05-06 02:25 | 40.64654 | -80.06633 | 19142 ft | 435 kts | 87° |
| 2026-05-06 02:26 | 40.64888 | -80.02653 | 19679 ft | 438 kts | 87° |
| 2026-05-06 02:26 | 40.65129 | -79.98534 | 20221 ft | 441 kts | 87° |
| 2026-05-06 02:26 | 40.65357 | -79.94602 | 20738 ft | 444 kts | 87° |
| 2026-05-06 02:26 | 40.65590 | -79.90542 | 21248 ft | 447 kts | 87° |
| 2026-05-06 02:27 | 40.65824 | -79.86433 | 21752 ft | 451 kts | 87° |
| 2026-05-06 02:27 | 40.66058 | -79.82300 | 22242 ft | 454 kts | 87° |
| 2026-05-06 02:27 | 40.66292 | -79.78142 | 22735 ft | 457 kts | 87° |
| 2026-05-06 02:27 | 40.66528 | -79.73924 | 23235 ft | 460 kts | 87° |
| 2026-05-06 02:28 | 40.66760 | -79.69739 | 23664 ft | 463 kts | 86° |
| 2026-05-06 02:28 | 40.66994 | -79.65503 | 24030 ft | 466 kts | 86° |
| 2026-05-06 02:28 | 40.67231 | -79.61177 | 24435 ft | 468 kts | 86° |
| 2026-05-06 02:28 | 40.67462 | -79.56946 | 24840 ft | 471 kts | 86° |
| 2026-05-06 02:29 | 40.67696 | -79.52635 | 25219 ft | 473 kts | 86° |
| 2026-05-06 02:29 | 40.67929 | -79.48297 | 25577 ft | 476 kts | 86° |
| 2026-05-06 02:29 | 40.68161 | -79.43932 | 25947 ft | 479 kts | 86° |
| 2026-05-06 02:29 | 40.68393 | -79.39542 | 26323 ft | 481 kts | 86° |
| 2026-05-06 02:30 | 40.68625 | -79.35126 | 26671 ft | 484 kts | 86° |
| 2026-05-06 02:30 | 40.68858 | -79.30630 | 27016 ft | 487 kts | 86° |
| 2026-05-06 02:30 | 40.69096 | -79.26026 | 27379 ft | 489 kts | 86° |
| 2026-05-06 02:30 | 40.69322 | -79.21622 | 27708 ft | 492 kts | 86° |
| 2026-05-06 02:31 | 40.69554 | -79.17054 | 28041 ft | 494 kts | 86° |
| 2026-05-06 02:31 | 40.69782 | -79.12527 | 28370 ft | 497 kts | 86° |
| 2026-05-06 02:31 | 40.70011 | -79.07973 | 28704 ft | 499 kts | 86° |
| 2026-05-06 02:31 | 40.70241 | -79.03340 | 29019 ft | 501 kts | 86° |
| 2026-05-06 02:32 | 40.70468 | -78.98725 | 29330 ft | 503 kts | 86° |
| 2026-05-06 02:32 | 40.70695 | -78.94077 | 29620 ft | 505 kts | 86° |
| 2026-05-06 02:32 | 40.70920 | -78.89442 | 29909 ft | 507 kts | 86° |
| 2026-05-06 02:32 | 40.71146 | -78.84749 | 30230 ft | 507 kts | 85° |
| 2026-05-06 02:33 | 40.71367 | -78.80105 | 30558 ft | 507 kts | 85° |
| 2026-05-06 02:33 | 40.71513 | -78.77020 | 30761 ft | 508 kts | 85° |
| 2026-05-06 02:33 | 40.72019 | -78.66195 | 31418 ft | 509 kts | 85° |
| 2026-05-06 02:34 | 40.72236 | -78.61468 | 31735 ft | 509 kts | 84° |
| 2026-05-06 02:34 | 40.72452 | -78.56741 | 32016 ft | 510 kts | 84° |
| 2026-05-06 02:34 | 40.72659 | -78.52164 | 32300 ft | 511 kts | 84° |
| 2026-05-06 02:34 | 40.72871 | -78.47452 | 32613 ft | 510 kts | 84° |
| 2026-05-06 02:35 | 40.73077 | -78.42814 | 32870 ft | 510 kts | 84° |
| 2026-05-06 02:35 | 40.74306 | -78.33634 | 32864 ft | 502 kts | 66° |
| 2026-05-06 02:36 | 40.77391 | -78.25537 | 32844 ft | 488 kts | 48° |
| 2026-05-06 02:36 | 40.81382 | -78.18308 | 32858 ft | 488 kts | 47° |
| 2026-05-06 02:37 | 40.85363 | -78.11022 | 32863 ft | 490 kts | 48° |
| 2026-05-06 02:37 | 40.89295 | -78.03658 | 32870 ft | 491 kts | 49° |
| 2026-05-06 02:38 | 40.93130 | -77.96169 | 32861 ft | 494 kts | 53° |
| 2026-05-06 02:38 | 40.96628 | -77.88322 | 32863 ft | 495 kts | 54° |
| 2026-05-06 02:39 | 41.00062 | -77.80431 | 32859 ft | 495 kts | 54° |
| 2026-05-06 02:39 | 41.03534 | -77.72558 | 32857 ft | 495 kts | 54° |
| 2026-05-06 02:40 | 41.07030 | -77.64677 | 32849 ft | 495 kts | 54° |
| 2026-05-06 02:40 | 41.09940 | -77.58107 | 32833 ft | 495 kts | 55° |
| 2026-05-06 02:41 | 41.13997 | -77.48909 | 32825 ft | 494 kts | 55° |
| 2026-05-06 02:41 | 41.17460 | -77.41040 | 32830 ft | 493 kts | 55° |
| 2026-05-06 02:42 | 41.20908 | -77.33183 | 32827 ft | 492 kts | 56° |
| 2026-05-06 02:42 | 41.23768 | -77.26650 | 32829 ft | 492 kts | 56° |
| 2026-05-06 02:43 | 41.27784 | -77.17453 | 32831 ft | 492 kts | 56° |
| 2026-05-06 02:43 | 41.31216 | -77.09568 | 32842 ft | 492 kts | 56° |
| 2026-05-06 02:44 | 41.34638 | -77.01689 | 32841 ft | 492 kts | 56° |
| 2026-05-06 02:44 | 41.38059 | -76.93789 | 32839 ft | 492 kts | 56° |
| 2026-05-06 02:45 | 41.40922 | -76.87162 | 32849 ft | 492 kts | 56° |
| 2026-05-06 02:45 | 41.44335 | -76.79242 | 32831 ft | 493 kts | 57° |
| 2026-05-06 02:46 | 41.47745 | -76.71307 | 32836 ft | 493 kts | 57° |
| 2026-05-06 02:46 | 41.51155 | -76.63355 | 32832 ft | 494 kts | 57° |
| 2026-05-06 02:47 | 41.54557 | -76.55401 | 32834 ft | 493 kts | 57° |
| 2026-05-06 02:47 | 41.57953 | -76.47434 | 32836 ft | 494 kts | 57° |
| 2026-05-06 02:48 | 41.61349 | -76.39446 | 32834 ft | 493 kts | 57° |
| 2026-05-06 02:48 | 41.64739 | -76.31451 | 32840 ft | 493 kts | 57° |
| 2026-05-06 02:49 | 41.68112 | -76.23476 | 32837 ft | 493 kts | 57° |
| 2026-05-06 02:49 | 41.71489 | -76.15470 | 32831 ft | 494 kts | 58° |
| 2026-05-06 02:50 | 41.74855 | -76.07466 | 32837 ft | 493 kts | 58° |
| 2026-05-06 02:50 | 41.78212 | -75.99465 | 32835 ft | 493 kts | 58° |
| 2026-05-06 02:51 | 41.81572 | -75.91432 | 32837 ft | 493 kts | 58° |
| 2026-05-06 02:51 | 41.84921 | -75.83405 | 32838 ft | 493 kts | 58° |
| 2026-05-06 02:52 | 41.88269 | -75.75357 | 32844 ft | 493 kts | 58° |
| 2026-05-06 02:52 | 41.91602 | -75.67326 | 32841 ft | 493 kts | 58° |
| 2026-05-06 02:53 | 41.94929 | -75.59286 | 32853 ft | 492 kts | 58° |
| 2026-05-06 02:53 | 41.98250 | -75.51242 | 32862 ft | 492 kts | 58° |
| 2026-05-06 02:54 | 42.01565 | -75.43189 | 32854 ft | 492 kts | 58° |
| 2026-05-06 02:54 | 42.04890 | -75.35089 | 32854 ft | 492 kts | 58° |
| 2026-05-06 02:55 | 42.08271 | -75.27161 | 32853 ft | 491 kts | 56° |
| 2026-05-06 02:55 | 42.11933 | -75.19346 | 32858 ft | 489 kts | 54° |
| 2026-05-06 02:56 | 42.15592 | -75.11612 | 32860 ft | 490 kts | 55° |
| 2026-05-06 02:56 | 42.19226 | -75.03824 | 32862 ft | 491 kts | 55° |
| 2026-05-06 02:57 | 42.22867 | -74.95943 | 32852 ft | 491 kts | 56° |
| 2026-05-06 02:57 | 42.26471 | -74.88107 | 32851 ft | 492 kts | 56° |
| 2026-05-06 02:58 | 42.30076 | -74.80251 | 32851 ft | 492 kts | 56° |
| 2026-05-06 02:58 | 42.33678 | -74.72387 | 32856 ft | 492 kts | 56° |
| 2026-05-06 02:59 | 42.37277 | -74.64509 | 32853 ft | 493 kts | 56° |
| 2026-05-06 02:59 | 42.40878 | -74.56603 | 32847 ft | 493 kts | 56° |
| 2026-05-06 03:00 | 42.44498 | -74.48636 | 32855 ft | 493 kts | 56° |
| 2026-05-06 03:00 | 42.48086 | -74.40718 | 32851 ft | 493 kts | 56° |
| 2026-05-06 03:01 | 42.51671 | -74.32786 | 32847 ft | 494 kts | 56° |
| 2026-05-06 03:01 | 42.55253 | -74.24840 | 32846 ft | 494 kts | 57° |
| 2026-05-06 03:02 | 42.58827 | -74.16890 | 32846 ft | 494 kts | 57° |
| 2026-05-06 03:02 | 42.62413 | -74.08890 | 32848 ft | 494 kts | 57° |
| 2026-05-06 03:03 | 42.65972 | -74.00930 | 32632 ft | 497 kts | 57° |
| 2026-05-06 03:03 | 42.67765 | -73.96910 | 32425 ft | 496 kts | 57° |
| 2026-05-06 03:03 | 42.69549 | -73.92906 | 32229 ft | 496 kts | 57° |
| 2026-05-06 03:03 | 42.71352 | -73.88857 | 32012 ft | 498 kts | 57° |
| 2026-05-06 03:04 | 42.73126 | -73.84838 | 31811 ft | 499 kts | 60° |
| 2026-05-06 03:04 | 42.74455 | -73.80405 | 31434 ft | 504 kts | 78° |
| 2026-05-06 03:04 | 42.74843 | -73.75750 | 31172 ft | 501 kts | 92° |
| 2026-05-06 03:04 | 42.74798 | -73.70945 | 30893 ft | 502 kts | 94° |
| 2026-05-06 03:05 | 42.74702 | -73.66184 | 30554 ft | 504 kts | 94° |
| 2026-05-06 03:05 | 42.74606 | -73.61415 | 30232 ft | 505 kts | 94° |
| 2026-05-06 03:05 | 42.74528 | -73.56636 | 29911 ft | 505 kts | 94° |
| 2026-05-06 03:05 | 42.74470 | -73.51859 | 29544 ft | 505 kts | 93° |
| 2026-05-06 03:06 | 42.74426 | -73.47136 | 29184 ft | 504 kts | 93° |
| 2026-05-06 03:06 | 42.74387 | -73.42382 | 28833 ft | 503 kts | 93° |
| 2026-05-06 03:06 | 42.74348 | -73.37568 | 28468 ft | 502 kts | 93° |
| 2026-05-06 03:06 | 42.74305 | -73.32817 | 28132 ft | 501 kts | 94° |
| 2026-05-06 03:07 | 42.74259 | -73.28107 | 27798 ft | 500 kts | 94° |
| 2026-05-06 03:07 | 42.74211 | -73.23411 | 27448 ft | 499 kts | 94° |
| 2026-05-06 03:07 | 42.74159 | -73.18650 | 27122 ft | 499 kts | 94° |
| 2026-05-06 03:07 | 42.74106 | -73.13932 | 26792 ft | 499 kts | 94° |
| 2026-05-06 03:08 | 42.73974 | -73.09207 | 26447 ft | 498 kts | 98° |
| 2026-05-06 03:08 | 42.73546 | -73.04551 | 26138 ft | 496 kts | 103° |
| 2026-05-06 03:08 | 42.72958 | -72.99933 | 25816 ft | 496 kts | 104° |
| 2026-05-06 03:08 | 42.72327 | -72.95312 | 25497 ft | 497 kts | 104° |
| 2026-05-06 03:09 | 42.71714 | -72.90693 | 25186 ft | 497 kts | 104° |
| 2026-05-06 03:09 | 42.71134 | -72.86058 | 24862 ft | 497 kts | 103° |
| 2026-05-06 03:09 | 42.70580 | -72.81413 | 24555 ft | 495 kts | 103° |
| 2026-05-06 03:09 | 42.70046 | -72.76826 | 24252 ft | 492 kts | 103° |
| 2026-05-06 03:10 | 42.69515 | -72.72243 | 23957 ft | 489 kts | 103° |
| 2026-05-06 03:10 | 42.68982 | -72.67693 | 23666 ft | 486 kts | 103° |
| 2026-05-06 03:10 | 42.68447 | -72.63180 | 23355 ft | 483 kts | 103° |
| 2026-05-06 03:10 | 42.67902 | -72.58645 | 22991 ft | 480 kts | 103° |
| 2026-05-06 03:11 | 42.67366 | -72.54231 | 22648 ft | 477 kts | 103° |
| 2026-05-06 03:11 | 42.66824 | -72.49800 | 22313 ft | 474 kts | 103° |
| 2026-05-06 03:11 | 42.66284 | -72.45396 | 21978 ft | 471 kts | 103° |
| 2026-05-06 03:11 | 42.65747 | -72.41013 | 21641 ft | 469 kts | 103° |
| 2026-05-06 03:12 | 42.65213 | -72.36658 | 21305 ft | 467 kts | 103° |
| 2026-05-06 03:12 | 42.64677 | -72.32314 | 20978 ft | 465 kts | 103° |
| 2026-05-06 03:12 | 42.64156 | -72.27992 | 20656 ft | 463 kts | 103° |
| 2026-05-06 03:12 | 42.63664 | -72.23743 | 20334 ft | 461 kts | 102° |
| 2026-05-06 03:13 | 42.63165 | -72.19395 | 19964 ft | 459 kts | 102° |
| 2026-05-06 03:13 | 42.62673 | -72.15126 | 19569 ft | 453 kts | 102° |
| 2026-05-06 03:13 | 42.62188 | -72.10943 | 19177 ft | 443 kts | 102° |
| 2026-05-06 03:13 | 42.61869 | -72.08214 | 18926 ft | 439 kts | 102° |
| 2026-05-06 03:14 | 42.61390 | -72.04155 | 18549 ft | 436 kts | 103° |
| 2026-05-06 03:14 | 42.60725 | -71.98717 | 18031 ft | 433 kts | 103° |
| 2026-05-06 03:14 | 42.60393 | -71.96062 | 17749 ft | 431 kts | 103° |
| 2026-05-06 03:14 | 42.59723 | -71.90710 | 17184 ft | 429 kts | 103° |
| 2026-05-06 03:15 | 42.59226 | -71.86732 | 16776 ft | 427 kts | 103° |
| 2026-05-06 03:15 | 42.58895 | -71.84081 | 16505 ft | 425 kts | 103° |
| 2026-05-06 03:15 | 42.58389 | -71.80164 | 16097 ft | 423 kts | 104° |
| 2026-05-06 03:15 | 42.57793 | -71.76270 | 15692 ft | 420 kts | 106° |
| 2026-05-06 03:16 | 42.57157 | -71.72410 | 15299 ft | 417 kts | 106° |
| 2026-05-06 03:16 | 42.56525 | -71.68578 | 14904 ft | 415 kts | 106° |
| 2026-05-06 03:16 | 42.55912 | -71.64776 | 14519 ft | 412 kts | 105° |
| 2026-05-06 03:16 | 42.55308 | -71.60984 | 14137 ft | 409 kts | 105° |
| 2026-05-06 03:17 | 42.54685 | -71.57260 | 13738 ft | 398 kts | 108° |
| 2026-05-06 03:17 | 42.53972 | -71.53724 | 13403 ft | 379 kts | 110° |
| 2026-05-06 03:17 | 42.53249 | -71.50366 | 13070 ft | 363 kts | 110° |
| 2026-05-06 03:17 | 42.52553 | -71.47148 | 12748 ft | 349 kts | 110° |
| 2026-05-06 03:18 | 42.51893 | -71.44045 | 12431 ft | 337 kts | 110° |
| 2026-05-06 03:18 | 42.51261 | -71.41030 | 12107 ft | 327 kts | 110° |
| 2026-05-06 03:18 | 42.50649 | -71.38097 | 11797 ft | 320 kts | 110° |
| 2026-05-06 03:18 | 42.50051 | -71.35207 | 11488 ft | 317 kts | 110° |
| 2026-05-06 03:19 | 42.49479 | -71.32349 | 11188 ft | 316 kts | 110° |
| 2026-05-06 03:19 | 42.48903 | -71.29453 | 10904 ft | 318 kts | 109° |
| 2026-05-06 03:19 | 42.48322 | -71.26534 | 10630 ft | 324 kts | 109° |
| 2026-05-06 03:19 | 42.47731 | -71.23575 | 10322 ft | 325 kts | 109° |
| 2026-05-06 03:20 | 42.46580 | -71.17740 | 9567 ft | 317 kts | 105° |
| 2026-05-06 03:20 | 42.46587 | -71.14760 | 9120 ft | 319 kts | 79° |
| 2026-05-06 03:20 | 42.47381 | -71.11978 | 8783 ft | 316 kts | 63° |
| 2026-05-06 03:21 | 42.48377 | -71.09320 | 8442 ft | 317 kts | 63° |
| 2026-05-06 03:21 | 42.49591 | -71.06834 | 7985 ft | 318 kts | 41° |
| 2026-05-06 03:21 | 42.51369 | -71.05164 | 7640 ft | 305 kts | 18° |
| 2026-05-06 03:21 | 42.53329 | -71.04179 | 7328 ft | 295 kts | 14° |
| 2026-05-06 03:22 | 42.55244 | -71.03274 | 6949 ft | 291 kts | 13° |
| 2026-05-06 03:22 | 42.57139 | -71.02364 | 6579 ft | 287 kts | 14° |
| 2026-05-06 03:22 | 42.59007 | -71.01481 | 6225 ft | 282 kts | 12° |
| 2026-05-06 03:22 | 42.60868 | -71.00714 | 5846 ft | 278 kts | 10° |
| 2026-05-06 03:23 | 42.62714 | -71.00012 | 5473 ft | 274 kts | 9° |
| 2026-05-06 03:23 | 42.64546 | -70.99339 | 5103 ft | 272 kts | 9° |
| 2026-05-06 03:23 | 42.66360 | -70.98653 | 4735 ft | 270 kts | 9° |
| 2026-05-06 03:23 | 42.68159 | -70.97984 | 4345 ft | 266 kts | 8° |
| 2026-05-06 03:24 | 42.69914 | -70.97161 | 3924 ft | 273 kts | 27° |
| 2026-05-06 03:24 | 42.71286 | -70.95363 | 3522 ft | 277 kts | 59° |
| 2026-05-06 03:24 | 42.71900 | -70.92660 | 3106 ft | 267 kts | 95° |
| 2026-05-06 03:24 | 42.71576 | -70.90530 | 3011 ft | 239 kts | 126° |
| 2026-05-06 03:25 | 42.70748 | -70.88705 | 3008 ft | 220 kts | 135° |
| 2026-05-06 03:25 | 42.69739 | -70.86959 | 2957 ft | 204 kts | 155° |
| 2026-05-06 03:25 | 42.68579 | -70.86068 | 2998 ft | 188 kts | 172° |
| 2026-05-06 03:25 | 42.67211 | -70.85847 | 3000 ft | 174 kts | 191° |
| 2026-05-06 03:26 | 42.66108 | -70.86206 | 3018 ft | 164 kts | 206° |
| 2026-05-06 03:26 | 42.65012 | -70.86693 | 3000 ft | 168 kts | 205° |
| 2026-05-06 03:26 | 42.63918 | -70.87187 | 2996 ft | 168 kts | 206° |
| 2026-05-06 03:26 | 42.62753 | -70.87735 | 2990 ft | 170 kts | 207° |
| 2026-05-06 03:27 | 42.62027 | -70.88083 | 2990 ft | 169 kts | 207° |
| 2026-05-06 03:27 | 42.60953 | -70.88603 | 2994 ft | 169 kts | 206° |
| 2026-05-06 03:27 | 42.60107 | -70.89014 | 2985 ft | 169 kts | 207° |
| 2026-05-06 03:27 | 42.59004 | -70.89552 | 2985 ft | 167 kts | 207° |
| 2026-05-06 03:28 | 42.57911 | -70.90085 | 2992 ft | 167 kts | 207° |
| 2026-05-06 03:28 | 42.56823 | -70.90616 | 2989 ft | 165 kts | 207° |
| 2026-05-06 03:28 | 42.55744 | -70.91144 | 2986 ft | 165 kts | 207° |
| 2026-05-06 03:28 | 42.54662 | -70.91672 | 2979 ft | 165 kts | 207° |
| 2026-05-06 03:29 | 42.53584 | -70.92200 | 2977 ft | 164 kts | 207° |
| 2026-05-06 03:29 | 42.52503 | -70.92735 | 2999 ft | 168 kts | 208° |
| 2026-05-06 03:29 | 42.51396 | -70.93277 | 2890 ft | 170 kts | 207° |
| 2026-05-06 03:29 | 42.50297 | -70.93809 | 2677 ft | 165 kts | 208° |
| 2026-05-06 03:30 | 42.49262 | -70.94308 | 2486 ft | 151 kts | 207° |
| 2026-05-06 03:30 | 42.48314 | -70.94767 | 2304 ft | 139 kts | 208° |
| 2026-05-06 03:30 | 42.47432 | -70.95196 | 2111 ft | 136 kts | 208° |
| 2026-05-06 03:30 | 42.46552 | -70.95625 | 1911 ft | 133 kts | 209° |
| 2026-05-06 03:31 | 42.45718 | -70.96028 | 1761 ft | 122 kts | 209° |
| 2026-05-06 03:31 | 42.44979 | -70.96385 | 1615 ft | 106 kts | 210° |
| 2026-05-06 03:31 | 42.44306 | -70.96714 | 1492 ft | 105 kts | 209° |
| 2026-05-06 03:31 | 42.43590 | -70.97065 | 1357 ft | 112 kts | 208° |
| 2026-05-06 03:32 | 42.42839 | -70.97430 | 1198 ft | 113 kts | 206° |
| 2026-05-06 03:32 | 42.42086 | -70.97795 | 1041 ft | 116 kts | 205° |
| 2026-05-06 03:32 | 42.41299 | -70.98177 | 877 ft | 123 kts | 204° |
| 2026-05-06 03:32 | 42.40466 | -70.98581 | 722 ft | 131 kts | 202° |
| 2026-05-06 03:33 | 42.39589 | -70.99006 | 544 ft | 133 kts | 202° |
| 2026-05-06 03:33 | 42.38708 | -70.99434 | 337 ft | 133 kts | 201° |
| 2026-05-06 03:33 | 42.37851 | -70.99867 | 117 ft | 129 kts | 199° |
| 2026-05-06 03:33 | 42.37036 | -71.00260 | 32 ft | 117 kts | 198° |
| 2026-05-06 03:34 | 42.36377 | -71.00567 | 25 ft | 75 kts | 199° |
| 2026-05-06 03:34 | 42.36021 | -71.00736 | 27 ft | 36 kts | 199° |
| 2026-05-06 03:34 | 42.35832 | -71.00832 | 27 ft | 27 kts | 201° |
| 2026-05-06 03:34 | 42.35661 | -71.00918 | 28 ft | 25 kts | 198° |
| 2026-05-06 03:35 | 42.35498 | -71.00994 | 25 ft | 24 kts | 201° |
| 2026-05-06 03:35 | 42.35387 | -71.01087 | 27 ft | 17 kts | 252° |
| 2026-05-06 03:35 | 42.35413 | -71.01242 | 26 ft | 18 kts | 292° |
| 2026-05-06 03:35 | 42.35508 | -71.01349 | 27 ft | 20 kts | 9° |
| 2026-05-06 03:36 | 42.35651 | -71.01310 | 26 ft | 23 kts | 13° |
| 2026-05-06 03:36 | 42.35758 | -71.01361 | 27 ft | 18 kts | 292° |
| 2026-05-06 03:36 | 42.35804 | -71.01528 | 27 ft | 19 kts | 301° |
| 2026-05-06 03:36 | 42.35889 | -71.01599 | 26 ft | 12 kts | 317° |
| 2026-05-06 03:37 | 42.35956 | -71.01658 | 26 ft | 12 kts | 321° |
| 2026-05-06 03:37 | 42.35987 | -71.01698 | 27 ft | 1 kts | 315° |
| 2026-05-06 03:37 | 42.35988 | -71.01699 | 26 ft | 0 kts | 315° |